MHTG/TGU METAR and TAF weather

Enter ICAO airport designator
Station Type Date Time Source
MHTG METAR 2024/04/18 08:00 UTC NOAA

MHTG 180800Z 00000KT CAVOK 22/15 Q1017 A3003 NOSIG


Station Type Date Time Source
MHTG Decoded METAR 2024/04/18 08:00 UTC NOAA

Tegucigalpa, Honduras (MHTG) 14-03N 087-13W 1007M
Apr 18, 2024 - 04:00 AM EDT / 2024.04.18 0800 UTC
Wind: Calm:0
Visibility: greater than 7 mile(s):0
Temperature: 71 F (22 C)
Dew Point: 59 F (15 C)
Relative Humidity: 64%
Pressure (altimeter): 30.03 in. Hg (1016 hPa)
ob: MHTG 180800Z 00000KT CAVOK 22/15 Q1017 A3003 NOSIG
cycle: 8

Station Type Date Time Source
MHTG TAF 2024/04/18 18:54 UTC NOAA